createdAt,value
2018-12-06T00:13:22.018Z,8.00
2018-12-06T00:15:55.006Z,8.00
2018-12-06T00:18:31.987Z,8.20
2018-12-06T00:21:08.776Z,8.40
2018-12-06T00:23:41.741Z,8.50
2018-12-06T00:26:14.500Z,8.70
2018-12-06T00:28:47.250Z,8.70
2018-12-06T00:31:20.259Z,8.70
2018-12-06T00:33:53.414Z,8.50
2018-12-06T00:36:29.914Z,8.40
2018-12-06T00:39:03.035Z,8.30
2018-12-06T00:41:35.614Z,8.30
2018-12-06T00:44:08.506Z,8.40
2018-12-06T00:46:41.252Z,8.50
2018-12-06T00:49:14.073Z,8.50
2018-12-06T00:51:47.134Z,8.70
2018-12-06T00:54:20.047Z,9.00
2018-12-06T00:56:57.230Z,9.00
2018-12-06T00:59:29.475Z,8.80
2018-12-06T01:02:02.383Z,8.60
2018-12-06T01:04:35.282Z,8.40
2018-12-06T01:07:08.338Z,8.40
2018-12-06T01:09:41.153Z,8.40
2018-12-06T01:12:14.125Z,8.40
2018-12-06T01:37:17.435Z,8.60
2018-12-06T01:39:50.159Z,8.60
2018-12-06T01:42:23.051Z,8.60
2018-12-06T01:44:56.143Z,8.60
2018-12-06T01:47:29.336Z,8.60
2018-12-06T01:50:02.179Z,8.70
2018-12-06T01:52:35.187Z,8.60
2018-12-06T01:55:08.203Z,8.60
2018-12-06T01:57:41.267Z,8.60
2018-12-06T02:00:14.634Z,8.40
2018-12-06T02:02:47.048Z,8.30
2018-12-06T02:05:19.800Z,8.40
2018-12-06T02:07:52.779Z,8.40
2018-12-06T02:10:25.679Z,8.40
2018-12-06T02:12:58.671Z,8.40
2018-12-06T02:15:31.678Z,8.50
2018-12-06T02:18:04.487Z,8.30
2018-12-06T02:20:36.990Z,8.30
2018-12-06T02:23:09.794Z,8.30
2018-12-06T02:25:42.691Z,8.30
2018-12-06T02:28:15.575Z,8.20
2018-12-06T02:30:48.318Z,8.20
2018-12-06T02:33:21.246Z,8.30
2018-12-06T02:35:54.299Z,8.30
2018-12-06T02:38:27.614Z,8.20
2018-12-06T02:41:00.024Z,8.30
2018-12-06T02:43:33.279Z,8.30
2018-12-06T02:46:06.110Z,8.20
2018-12-06T02:48:39.184Z,8.20
2018-12-06T02:51:12.223Z,8.10
2018-12-06T02:53:45.311Z,8.20
2018-12-06T02:56:22.347Z,8.20
2018-12-06T02:58:55.214Z,8.20
2018-12-06T03:01:28.049Z,8.20
2018-12-06T03:04:00.968Z,8.20
2018-12-06T03:06:33.626Z,8.20
2018-12-06T03:09:07.448Z,8.20
2018-12-06T03:11:40.571Z,8.00
2018-12-06T03:14:13.336Z,8.00
2018-12-06T03:16:46.223Z,8.00
2018-12-06T03:19:23.267Z,8.00
2018-12-06T03:21:56.361Z,8.00
2018-12-06T03:24:29.342Z,7.90
2018-12-06T03:27:02.408Z,7.90
2018-12-06T03:29:35.214Z,7.90
2018-12-06T03:32:08.233Z,7.90
2018-12-06T03:34:41.162Z,7.90
2018-12-06T03:37:14.246Z,7.80
2018-12-06T03:42:18.041Z,7.80
2018-12-06T03:44:50.816Z,7.80
2018-12-06T03:47:27.808Z,7.70
2018-12-06T03:50:00.718Z,7.70
2018-12-06T03:52:33.361Z,7.70
2018-12-06T03:55:06.278Z,7.80
2018-12-06T03:57:39.339Z,7.90
2018-12-06T04:00:16.179Z,7.90
2018-12-06T04:02:58.376Z,7.80
2018-12-06T04:05:30.969Z,7.80
2018-12-06T04:08:07.671Z,7.80
2018-12-06T04:10:43.971Z,7.70
2018-12-06T04:13:16.911Z,7.70
2018-12-06T04:15:49.917Z,7.70
2018-12-06T04:18:22.991Z,7.70
2018-12-06T04:20:55.939Z,7.70
2018-12-06T04:23:28.648Z,7.70
2018-12-06T04:26:01.655Z,7.80
2018-12-06T04:28:35.450Z,7.80
2018-12-06T04:31:08.272Z,7.70
2018-12-06T04:33:41.176Z,7.80
2018-12-06T04:36:14.311Z,7.70
2018-12-06T04:38:47.049Z,7.70
2018-12-06T04:43:49.647Z,7.70
2018-12-06T04:46:22.526Z,7.70
2018-12-06T04:48:59.652Z,7.80
2018-12-06T04:51:32.424Z,7.80
2018-12-06T04:54:05.114Z,7.70
2018-12-06T04:56:38.012Z,7.70
2018-12-06T04:59:11.046Z,7.80
2018-12-06T05:01:43.944Z,7.70
2018-12-06T05:04:16.917Z,7.80
2018-12-06T05:06:53.704Z,7.80
2018-12-06T05:09:26.591Z,7.80
2018-12-06T05:11:59.303Z,7.80
2018-12-06T05:14:36.576Z,7.80
2018-12-06T05:17:09.139Z,7.70
2018-12-06T05:19:46.379Z,7.70
2018-12-06T05:22:20.315Z,7.70
2018-12-06T05:24:58.259Z,7.70
2018-12-06T05:27:32.081Z,7.70
2018-12-06T05:30:05.974Z,7.80
2018-12-06T05:32:43.449Z,7.80
2018-12-06T05:35:18.133Z,7.70
2018-12-06T05:37:51.282Z,7.60
2018-12-06T05:40:28.347Z,7.50
2018-12-06T05:45:35.545Z,7.40
2018-12-06T05:48:09.117Z,7.40
2018-12-06T05:50:42.149Z,7.50
2018-12-06T05:53:15.245Z,7.50
2018-12-06T05:55:52.443Z,7.50
2018-12-06T05:58:25.932Z,7.60
2018-12-06T06:00:59.717Z,7.60
2018-12-06T06:03:32.777Z,7.60
2018-12-06T06:06:05.930Z,7.70
2018-12-06T06:08:38.978Z,7.60
2018-12-06T06:11:12.859Z,7.60
2018-12-06T06:13:49.769Z,7.60
2018-12-06T06:16:23.779Z,7.60
2018-12-06T06:18:57.363Z,7.60
2018-12-06T06:21:34.438Z,7.60
2018-12-06T06:24:08.270Z,7.60
2018-12-06T06:26:41.723Z,7.70
2018-12-06T06:29:16.231Z,7.70
2018-12-06T06:31:49.173Z,7.60
2018-12-06T06:34:23.005Z,7.60
2018-12-06T06:37:00.028Z,7.70
2018-12-06T06:39:33.878Z,7.60
2018-12-06T06:42:07.062Z,7.50
2018-12-06T06:44:43.835Z,7.50
2018-12-06T06:47:20.734Z,7.60
2018-12-06T06:49:53.836Z,7.60
2018-12-06T06:52:26.698Z,7.60
2018-12-06T06:54:59.737Z,7.60
2018-12-06T06:57:32.881Z,7.50
2018-12-06T07:00:06.639Z,7.60
2018-12-06T07:02:38.922Z,7.60
2018-12-06T07:05:15.887Z,7.60
2018-12-06T07:07:48.914Z,7.60
2018-12-06T07:10:21.638Z,7.60
2018-12-06T07:12:58.319Z,7.50
2018-12-06T07:15:31.491Z,7.50
2018-12-06T07:18:04.459Z,7.50
2018-12-06T07:20:37.211Z,7.60
2018-12-06T07:23:09.963Z,7.60
2018-12-06T07:25:46.265Z,7.70
2018-12-06T07:28:21.091Z,7.70
2018-12-06T07:30:53.383Z,7.80
2018-12-06T07:33:26.473Z,7.80
2018-12-06T07:35:59.442Z,7.80
2018-12-06T07:38:32.427Z,7.90
2018-12-06T07:41:05.522Z,7.90
2018-12-06T07:43:42.647Z,7.80
2018-12-06T07:46:15.591Z,7.90
2018-12-06T07:48:53.812Z,7.90
2018-12-06T07:51:26.648Z,8.00
2018-12-06T07:54:34.423Z,7.90
2018-12-06T07:57:07.684Z,7.90
2018-12-06T07:59:40.809Z,7.80
2018-12-06T08:02:13.040Z,7.80
2018-12-06T08:04:46.255Z,7.80
2018-12-06T08:07:18.833Z,7.80
2018-12-06T08:09:55.111Z,7.80
2018-12-06T08:12:28.154Z,7.80
2018-12-06T08:15:04.611Z,7.80
2018-12-06T08:17:41.515Z,7.90
2018-12-06T08:20:14.722Z,7.90
2018-12-06T08:22:51.739Z,7.90
2018-12-06T08:25:24.731Z,7.90
2018-12-06T08:28:01.131Z,7.90
2018-12-06T08:30:33.363Z,7.90
2018-12-06T08:33:06.554Z,7.90
2018-12-06T08:35:42.819Z,7.90
2018-12-06T08:38:15.126Z,7.90
2018-12-06T08:40:48.182Z,8.00
2018-12-06T08:43:20.831Z,8.00
2018-12-06T08:45:53.887Z,8.10
2018-12-06T08:48:26.322Z,8.10
2018-12-06T08:50:59.515Z,8.10
2018-12-06T08:53:32.042Z,8.10
2018-12-06T08:56:05.099Z,8.10
2018-12-06T08:58:38.029Z,8.10
2018-12-06T09:01:15.078Z,8.20
2018-12-06T09:03:48.287Z,8.30
2018-12-06T09:06:25.454Z,8.40
2018-12-06T09:08:58.727Z,8.50
2018-12-06T09:11:35.793Z,8.50
2018-12-06T09:14:08.887Z,8.40
2018-12-06T09:16:41.274Z,8.20
2018-12-06T09:19:17.628Z,8.10
2018-12-06T09:21:51.154Z,8.00
2018-12-06T09:24:23.971Z,8.10
2018-12-06T09:27:01.112Z,8.00
2018-12-06T09:29:38.103Z,8.00
2018-12-06T09:32:11.302Z,8.10
2018-12-06T09:34:44.310Z,8.10
2018-12-06T09:37:20.694Z,8.10
2018-12-06T09:39:58.550Z,8.10
2018-12-06T09:42:31.334Z,8.20
2018-12-06T09:45:05.027Z,8.30
2018-12-06T09:47:37.998Z,8.40
2018-12-06T09:50:10.998Z,8.50
2018-12-06T09:52:48.145Z,8.60
2018-12-06T09:55:25.442Z,8.70
2018-12-06T09:57:58.048Z,8.70
2018-12-06T10:00:34.328Z,8.80
2018-12-06T10:03:06.867Z,8.80
2018-12-06T10:05:43.137Z,8.80
2018-12-06T10:08:18.611Z,8.90
2018-12-06T10:10:51.422Z,8.80
2018-12-06T10:13:24.603Z,8.80
2018-12-06T10:15:57.061Z,8.80
2018-12-06T10:18:30.217Z,8.90
2018-12-06T10:21:02.487Z,9.00
2018-12-06T10:23:35.039Z,9.00
2018-12-06T10:26:08.074Z,9.10
2018-12-06T10:28:41.791Z,9.00
2018-12-06T10:31:14.764Z,9.00
2018-12-06T10:33:47.147Z,8.90
2018-12-06T10:36:20.306Z,8.80
2018-12-06T10:38:53.481Z,8.70
2018-12-06T10:41:26.338Z,8.70
2018-12-06T10:43:59.372Z,8.70
2018-12-06T10:46:32.631Z,8.80
2018-12-06T10:49:06.538Z,8.80
2018-12-06T10:51:44.446Z,8.80
2018-12-06T10:54:17.308Z,8.90
2018-12-06T10:59:19.474Z,9.00
2018-12-06T11:01:57.499Z,9.00
2018-12-06T11:04:35.483Z,9.10
2018-12-06T11:07:08.776Z,9.20
2018-12-06T11:09:41.867Z,9.20
2018-12-06T11:12:14.221Z,9.20
2018-12-06T11:14:50.468Z,9.30
2018-12-06T11:17:26.752Z,9.30
2018-12-06T11:20:02.999Z,9.40
2018-12-06T11:22:36.171Z,9.40
2018-12-06T11:25:13.530Z,9.20
2018-12-06T11:27:46.701Z,9.20
2018-12-06T11:30:19.747Z,9.20
2018-12-06T11:32:56.793Z,9.20
2018-12-06T11:35:29.235Z,9.30
2018-12-06T11:38:03.379Z,9.30
2018-12-06T11:40:40.610Z,9.30
2018-12-06T11:43:13.834Z,9.20
2018-12-06T11:45:47.012Z,9.30
2018-12-06T11:48:26.893Z,9.40
2018-12-06T11:50:58.455Z,9.40
2018-12-06T11:53:30.838Z,9.40
2018-12-06T11:56:04.084Z,9.40
2018-12-06T12:03:41.135Z,9.40
2018-12-06T12:06:14.099Z,9.40
2018-12-06T12:08:47.238Z,9.50
2018-12-06T12:11:24.463Z,9.50
2018-12-06T12:14:01.648Z,9.60
2018-12-06T12:16:37.893Z,9.60
2018-12-06T12:19:11.115Z,9.60
2018-12-06T12:21:44.305Z,9.60
2018-12-06T12:24:16.769Z,9.70
2018-12-06T12:26:54.064Z,9.70
2018-12-06T12:29:30.348Z,9.70
2018-12-06T12:32:03.339Z,9.80
2018-12-06T12:34:36.540Z,9.90
2018-12-06T12:37:14.718Z,10.00
2018-12-06T12:39:47.623Z,10.00
2018-12-06T12:42:20.614Z,10.10
2018-12-06T12:44:53.664Z,10.10
2018-12-06T12:47:26.973Z,10.10
2018-12-06T12:50:03.787Z,10.20
2018-12-06T12:52:40.871Z,10.30
2018-12-06T12:55:13.725Z,10.50
2018-12-06T12:57:50.107Z,10.30
2018-12-06T13:00:23.091Z,10.20
2018-12-06T13:05:24.962Z,10.00
2018-12-06T13:07:57.932Z,10.00
2018-12-06T13:10:30.922Z,10.10
2018-12-06T13:13:03.341Z,10.10
2018-12-06T13:15:36.091Z,10.20
2018-12-06T13:18:09.310Z,10.30
2018-12-06T13:20:42.263Z,10.40
2018-12-06T13:23:14.526Z,10.40
2018-12-06T13:25:47.709Z,10.40
2018-12-06T13:28:21.714Z,10.30
2018-12-06T13:30:58.900Z,10.40
2018-12-06T13:33:32.039Z,10.50
2018-12-06T13:36:08.186Z,10.40
2018-12-06T13:38:41.342Z,10.50
2018-12-06T13:41:17.551Z,10.60
2018-12-06T13:43:50.006Z,10.50
2018-12-06T13:46:26.352Z,10.60
2018-12-06T13:49:02.855Z,10.70
2018-12-06T13:51:35.608Z,10.80
2018-12-06T13:54:08.615Z,10.80
2018-12-06T13:56:41.475Z,11.00
2018-12-06T13:59:14.555Z,10.90
2018-12-06T14:01:51.392Z,10.90
2018-12-06T14:04:23.732Z,10.70
2018-12-06T14:06:57.003Z,10.70
2018-12-06T14:09:29.827Z,10.60
2018-12-06T14:12:06.228Z,10.50
2018-12-06T14:14:35.543Z,10.50
2018-12-06T14:17:08.751Z,10.40
2018-12-06T14:19:45.006Z,10.40
2018-12-06T14:22:21.446Z,10.40
2018-12-06T14:24:54.318Z,10.50
2018-12-06T14:27:31.622Z,10.50
2018-12-06T14:30:05.045Z,10.60
2018-12-06T14:32:37.536Z,10.70
2018-12-06T14:35:13.830Z,10.60
2018-12-06T14:37:47.106Z,10.50
2018-12-06T14:40:19.360Z,10.50
2018-12-06T14:42:51.642Z,10.50
2018-12-06T14:45:25.018Z,10.60
2018-12-06T14:47:57.999Z,10.60
2018-12-06T14:50:31.166Z,10.60
2018-12-06T14:53:04.314Z,10.50
2018-12-06T14:55:37.469Z,10.40
2018-12-06T14:58:11.722Z,10.40
2018-12-06T15:00:44.936Z,10.40
2018-12-06T15:03:17.811Z,10.30
2018-12-06T15:05:50.150Z,10.20
2018-12-06T15:08:23.100Z,10.10
2018-12-06T15:11:00.287Z,10.10
2018-12-06T15:13:33.431Z,10.00
2018-12-06T15:16:05.774Z,9.90
2018-12-06T15:18:38.650Z,9.80
2018-12-06T15:21:14.895Z,9.90
2018-12-06T15:23:48.053Z,10.00
2018-12-06T15:26:20.440Z,9.90
2018-12-06T15:28:53.543Z,9.90
2018-12-06T15:31:30.047Z,9.80
2018-12-06T15:34:02.846Z,9.80
2018-12-06T15:36:35.905Z,9.70
2018-12-06T15:39:12.303Z,9.80
2018-12-06T15:41:45.259Z,9.80
2018-12-06T15:44:22.398Z,9.80
2018-12-06T15:46:55.942Z,9.80
2018-12-06T15:49:28.555Z,9.80
2018-12-06T15:52:01.587Z,9.70
2018-12-06T15:54:37.942Z,9.70
2018-12-06T15:57:11.125Z,9.70
2018-12-06T15:59:43.448Z,9.60
2018-12-06T16:02:16.570Z,9.50
2018-12-06T16:04:49.756Z,9.40
2018-12-06T16:07:27.040Z,9.30
2018-12-06T16:10:00.036Z,9.10
2018-12-06T16:12:32.263Z,9.10
2018-12-06T16:15:05.045Z,8.90
2018-12-06T16:17:37.790Z,8.90
2018-12-06T16:20:14.085Z,9.00
2018-12-06T16:22:47.043Z,9.00
2018-12-06T16:25:20.232Z,9.10
2018-12-06T16:27:56.516Z,9.00
2018-12-06T16:30:29.635Z,9.00
2018-12-06T16:33:02.127Z,8.90
2018-12-06T16:35:35.162Z,8.80
2018-12-06T16:38:08.371Z,8.80
2018-12-06T16:40:45.482Z,8.80
2018-12-06T16:43:18.679Z,8.80
2018-12-06T16:45:51.853Z,8.80
2018-12-06T16:48:24.131Z,8.80
2018-12-06T16:50:56.495Z,8.90
2018-12-06T16:53:28.696Z,8.90
2018-12-06T16:56:05.879Z,8.90
2018-12-06T16:58:39.038Z,8.80
2018-12-06T17:01:12.059Z,8.90
2018-12-06T17:03:48.462Z,9.00
2018-12-06T17:06:20.783Z,9.00
2018-12-06T17:08:54.080Z,8.90
2018-12-06T17:13:56.858Z,8.90
2018-12-06T17:16:33.398Z,8.90
2018-12-06T17:19:09.764Z,8.90
2018-12-06T17:21:42.814Z,8.90
2018-12-06T17:24:15.078Z,8.90
2018-12-06T17:26:48.250Z,8.90
2018-12-06T17:29:21.286Z,8.90
2018-12-06T17:31:54.451Z,8.90
2018-12-06T17:34:26.838Z,9.00
2018-12-06T17:37:03.159Z,8.90
2018-12-06T17:39:36.103Z,8.90
2018-12-06T17:42:12.547Z,8.90
2018-12-06T17:44:45.388Z,9.00
2018-12-06T17:47:18.695Z,9.00
2018-12-06T17:49:55.074Z,8.90
2018-12-06T17:52:28.198Z,8.90
2018-12-06T17:55:01.383Z,8.80
2018-12-06T17:57:34.347Z,8.80
2018-12-06T18:00:09.308Z,8.70
2018-12-06T18:02:41.700Z,8.50
2018-12-06T18:05:14.128Z,8.40
2018-12-06T18:07:47.319Z,8.30
2018-12-06T18:10:20.583Z,8.30
2018-12-06T18:15:28.568Z,8.50
2018-12-06T18:18:01.191Z,8.70
2018-12-06T18:20:34.406Z,8.80
2018-12-06T18:23:07.406Z,8.80
2018-12-06T18:25:43.763Z,8.80
2018-12-06T18:28:17.027Z,8.90
2018-12-06T18:30:50.135Z,8.80
2018-12-06T18:33:23.375Z,8.60
2018-12-06T18:35:55.787Z,8.50
2018-12-06T18:38:28.899Z,8.60
2018-12-06T18:41:02.068Z,8.60
2018-12-06T18:43:35.083Z,8.60
2018-12-06T18:46:08.173Z,8.70
2018-12-06T18:48:41.471Z,8.70
2018-12-06T18:51:14.513Z,8.70
2018-12-06T18:53:47.640Z,8.70
2018-12-06T18:56:24.888Z,8.70
2018-12-06T18:58:57.931Z,8.70
2018-12-06T19:01:31.182Z,8.70
2018-12-06T19:04:03.607Z,8.70
2018-12-06T19:06:44.107Z,8.70
2018-12-06T19:09:16.999Z,8.70
2018-12-06T19:11:49.805Z,8.80
2018-12-06T19:14:22.772Z,8.90
2018-12-06T19:16:59.233Z,8.90
2018-12-06T19:19:36.506Z,9.00
2018-12-06T19:22:09.754Z,9.10
2018-12-06T19:24:42.218Z,9.10
2018-12-06T19:27:15.874Z,8.90
2018-12-06T19:29:48.506Z,8.90
2018-12-06T19:32:21.382Z,8.70
2018-12-06T19:34:54.502Z,8.70
2018-12-06T19:37:31.040Z,8.70
2018-12-06T19:40:04.280Z,8.50
2018-12-06T19:42:38.863Z,8.60
2018-12-06T19:45:11.459Z,8.70
2018-12-06T19:54:36.403Z,8.60
2018-12-06T19:57:09.639Z,8.60
2018-12-06T19:59:46.795Z,8.60
2018-12-06T20:02:23.075Z,8.60
2018-12-06T20:05:00.243Z,8.50
2018-12-06T20:07:33.359Z,8.50
2018-12-06T20:10:15.476Z,8.50
2018-12-06T20:12:48.463Z,8.50
2018-12-06T20:15:21.403Z,8.50
2018-12-06T20:17:53.786Z,8.50
2018-12-06T20:20:26.827Z,8.40
2018-12-06T20:22:59.942Z,8.40
2018-12-06T20:25:32.338Z,8.50
2018-12-06T20:28:05.463Z,8.30
2018-12-06T20:30:38.471Z,8.20
2018-12-06T20:33:11.594Z,8.30
2018-12-06T20:35:44.643Z,8.30
2018-12-06T20:38:17.782Z,8.30
2018-12-06T20:40:50.755Z,8.30
2018-12-06T20:43:23.586Z,8.20
2018-12-06T20:45:56.649Z,8.00
2018-12-06T20:48:29.738Z,8.00
2018-12-06T20:51:06.025Z,8.20
2018-12-06T20:53:42.218Z,8.30
2018-12-06T20:56:15.283Z,8.40
2018-12-06T20:58:48.343Z,8.40
2018-12-06T21:01:25.471Z,8.40
2018-12-06T21:03:58.606Z,8.60
2018-12-06T21:06:34.940Z,8.50
2018-12-06T21:09:12.340Z,8.30
2018-12-06T21:11:44.875Z,8.30
2018-12-06T21:14:22.268Z,8.40
2018-12-06T21:16:55.371Z,8.50
2018-12-06T21:19:27.755Z,8.50
2018-12-06T21:22:04.982Z,8.50
2018-12-06T21:24:38.108Z,8.30
2018-12-06T21:27:11.263Z,8.20
2018-12-06T21:29:43.599Z,8.20
2018-12-06T21:32:15.836Z,8.20
2018-12-06T21:34:48.956Z,8.20
2018-12-06T21:37:22.224Z,8.30
2018-12-06T21:39:55.375Z,8.20
2018-12-06T21:42:31.611Z,8.10
2018-12-06T21:45:04.252Z,8.10
2018-12-06T21:47:37.307Z,8.10
2018-12-06T21:50:09.819Z,8.00
2018-12-06T21:52:42.831Z,7.90
2018-12-06T21:55:15.549Z,7.90
2018-12-06T21:57:48.522Z,7.80
2018-12-06T22:00:21.666Z,7.80
2018-12-06T22:02:54.087Z,7.70
2018-12-06T22:05:31.322Z,7.80
2018-12-06T22:08:04.720Z,7.70
2018-12-06T22:10:36.975Z,7.70
2018-12-06T22:13:13.423Z,7.70
2018-12-06T22:15:46.611Z,7.80
2018-12-06T22:18:19.767Z,7.70
2018-12-06T22:20:56.738Z,7.70
2018-12-06T22:23:29.859Z,7.70
2018-12-06T22:26:03.098Z,7.50
2018-12-06T22:28:36.155Z,7.60
2018-12-06T22:31:08.480Z,7.70
2018-12-06T22:33:41.616Z,7.60
2018-12-06T22:36:14.792Z,7.70
2018-12-06T22:38:47.790Z,7.70
2018-12-06T22:41:20.615Z,8.00
2018-12-06T22:43:53.650Z,8.00
2018-12-06T22:46:26.687Z,8.10
2018-12-06T22:48:59.683Z,8.10
2018-12-06T22:51:32.896Z,8.20
2018-12-06T22:54:05.847Z,8.20
2018-12-06T22:56:38.087Z,8.20
2018-12-06T22:59:11.303Z,8.20
2018-12-06T23:01:43.919Z,8.20
2018-12-06T23:04:20.564Z,8.20
2018-12-06T23:06:53.710Z,8.30
2018-12-06T23:09:30.790Z,8.30
2018-12-06T23:12:07.957Z,8.40
2018-12-06T23:14:40.977Z,8.50
2018-12-06T23:17:13.347Z,8.50
2018-12-06T23:19:46.472Z,8.40
2018-12-06T23:22:22.972Z,8.40
2018-12-06T23:25:00.123Z,8.30
2018-12-06T23:27:33.350Z,8.30
2018-12-06T23:30:10.296Z,8.20
2018-12-06T23:32:43.453Z,8.10
2018-12-06T23:35:15.687Z,8.10
2018-12-06T23:37:52.913Z,8.10
2018-12-06T23:40:26.039Z,8.20
2018-12-06T23:42:58.392Z,8.20
2018-12-06T23:45:35.441Z,8.10
2018-12-06T23:48:12.529Z,8.10
2018-12-06T23:50:44.740Z,8.10
2018-12-06T23:53:17.077Z,8.00
2018-12-06T23:55:54.080Z,8.00
2018-12-06T23:58:30.412Z,8.00
